Time;durP1;ratioP1;P1;durP2;ratioP2;P2;SDS_P1;SDS_P2;PMS_P1;PMS_P2;Temp;Humidity;BMP_temperature;BMP_pressure;BME280_temperature;BME280_humidity;BME280_pressure;Samples;Min_cycle;Max_cycle;Signal;HPM_P1;HPM_P2
2024/04/25 00:02:21;;;;;;;4.03;2.37;;;;;;;3.86;100.00;97369.06;5445517;26;20236;-79
2024/04/25 00:04:51;;;;;;;2.57;2.20;;;;;;;3.90;100.00;97370.59;5450702;26;20632;-79
2024/04/25 00:07:20;;;;;;;3.00;2.40;;;;;;;3.94;100.00;97374.75;5452979;26;20319;-78
2024/04/25 00:09:48;;;;;;;3.90;2.30;;;;;;;3.95;100.00;97371.19;5453096;26;20236;-79
2024/04/25 00:12:17;;;;;;;2.30;2.10;;;;;;;3.97;100.00;97365.88;5453499;26;20302;-79
2024/04/25 00:14:45;;;;;;;4.10;2.10;;;;;;;3.95;100.00;97371.19;5453317;26;20645;-79
2024/04/25 00:17:13;;;;;;;2.67;2.10;;;;;;;3.96;100.00;97372.88;5453802;26;20292;-79
2024/04/25 00:19:41;;;;;;;3.47;2.40;;;;;;;3.93;100.00;97365.22;5444928;26;20823;-79
2024/04/25 00:22:12;;;;;;;3.07;2.03;;;;;;;3.90;100.00;97367.97;5416743;26;20239;-79
2024/04/25 00:24:40;;;;;;;2.37;2.10;;;;;;;3.88;100.00;97364.63;5418222;26;20313;-79
2024/04/25 00:27:10;;;;;;;2.40;2.20;;;;;;;3.88;100.00;97362.00;5417803;26;20239;-80
2024/04/25 00:29:40;;;;;;;3.13;2.50;;;;;;;3.85;100.00;97362.16;5417909;26;20305;-79
2024/04/25 00:32:05;;;;;;;4.47;1.90;;;;;;;3.89;100.00;97361.06;5417250;26;20277;-80
2024/04/25 00:34:34;;;;;;;3.83;2.30;;;;;;;3.95;100.00;97360.75;5417708;26;20229;-79
2024/04/25 00:37:02;;;;;;;2.47;2.23;;;;;;;3.99;100.00;97357.03;5417542;26;20228;-79
2024/04/25 00:39:32;;;;;;;3.73;2.07;;;;;;;3.99;100.00;97358.78;5416219;26;20284;-78
2024/04/25 00:42:01;;;;;;;4.50;2.33;;;;;;;3.99;100.00;97351.81;5416406;26;20323;-80
2024/04/25 00:44:29;;;;;;;4.83;2.67;;;;;;;3.99;100.00;97349.19;5418865;26;20229;-80
2024/04/25 00:46:59;;;;;;;3.07;2.37;;;;;;;4.01;100.00;97352.56;5419301;26;20229;-80
2024/04/25 00:49:27;;;;;;;5.43;2.70;;;;;;;4.01;100.00;97344.72;5419846;26;20310;-80
2024/04/25 00:51:55;;;;;;;2.80;2.43;;;;;;;4.08;100.00;97346.06;5420001;26;20308;-80
2024/04/25 00:54:24;;;;;;;4.97;2.83;;;;;;;4.11;100.00;97343.28;5419430;26;20299;-80
2024/04/25 00:56:56;;;;;;;4.37;2.63;;;;;;;4.08;100.00;97348.66;5420009;26;20598;-80
2024/04/25 00:59:23;;;;;;;4.77;2.80;;;;;;;4.06;100.00;97349.69;5419260;26;20236;-80
2024/04/25 01:01:52;;;;;;;2.60;2.40;;;;;;;4.11;100.00;97351.13;5419982;26;20232;-80
2024/04/25 01:04:26;;;;;;;3.30;2.50;;;;;;;4.09;100.00;97350.34;5421829;26;20266;-79
2024/04/25 01:06:56;;;;;;;3.87;2.50;;;;;;;4.09;100.00;97346.91;5420664;26;20296;-79
2024/04/25 01:09:24;;;;;;;4.13;2.63;;;;;;;4.12;100.00;97351.94;5414904;26;20288;-79
2024/04/25 01:11:55;;;;;;;3.33;2.60;;;;;;;4.03;100.00;97340.22;5413619;26;20304;-79
2024/04/25 01:14:23;;;;;;;3.90;2.77;;;;;;;4.01;100.00;97347.31;5413974;26;20261;-79
2024/04/25 01:16:52;;;;;;;5.10;2.67;;;;;;;3.94;100.00;97342.50;5425471;26;20277;-80
2024/04/25 01:19:20;;;;;;;3.93;3.07;;;;;;;3.88;100.00;97348.94;5426934;26;20306;-79
2024/04/25 01:21:50;;;;;;;3.20;2.87;;;;;;;3.82;100.00;97344.03;5426727;26;20227;-80
2024/04/25 01:24:23;;;;;;;7.37;2.73;;;;;;;3.84;100.00;97350.03;5427212;26;20325;-80
2024/04/25 01:26:55;;;;;;;3.77;2.50;;;;;;;3.74;100.00;97340.16;5422673;26;20231;-80
2024/04/25 01:29:25;;;;;;;4.00;3.03;;;;;;;3.71;100.00;97338.56;5422170;26;20312;-80
2024/04/25 01:31:54;;;;;;;3.40;3.10;;;;;;;3.63;100.00;97338.16;5421326;26;20747;-80
2024/04/25 01:34:23;;;;;;;3.43;3.10;;;;;;;3.59;100.00;97340.97;5421721;26;20242;-80
2024/04/25 01:36:51;;;;;;;3.10;2.63;;;;;;;3.59;100.00;97344.44;5420780;26;20225;-80
2024/04/25 01:39:19;;;;;;;4.97;3.10;;;;;;;3.62;100.00;97340.84;5419329;26;20296;-80
2024/04/25 01:41:48;;;;;;;3.33;3.03;;;;;;;3.64;100.00;97338.97;5419031;26;20229;-79
2024/04/25 01:44:18;;;;;;;4.33;3.20;;;;;;;3.64;100.00;97334.59;5419123;26;20692;-80
2024/04/25 01:46:48;;;;;;;3.80;3.03;;;;;;;3.73;100.00;97334.09;5417847;26;20379;-80
2024/04/25 01:49:16;;;;;;;3.70;3.30;;;;;;;3.76;100.00;97333.94;5417740;26;20225;-80
2024/04/25 01:51:44;;;;;;;5.07;2.70;;;;;;;3.73;100.00;97330.66;5417319;26;20262;-80
2024/04/25 01:54:12;;;;;;;4.27;2.83;;;;;;;3.73;100.00;97323.63;5417593;26;20303;-80
2024/04/25 01:56:40;;;;;;;4.53;3.10;;;;;;;3.74;100.00;97319.25;5417493;26;20298;-80
2024/04/25 01:59:09;;;;;;;5.43;3.20;;;;;;;3.76;100.00;97326.09;5416968;26;20355;-80
2024/04/25 02:01:40;;;;;;;5.17;3.00;;;;;;;3.78;100.00;97319.00;5415350;26;20320;-80
2024/04/25 02:04:08;;;;;;;5.17;3.20;;;;;;;3.77;100.00;97319.94;5416575;26;20324;-80
2024/04/25 02:06:36;;;;;;;4.17;3.10;;;;;;;3.78;100.00;97323.41;5415556;26;20269;-80
2024/04/25 02:09:04;;;;;;;4.03;3.30;;;;;;;3.76;100.00;97313.03;5415088;26;20367;-80
2024/04/25 02:11:32;;;;;;;5.13;2.97;;;;;;;3.78;100.00;97316.38;5414762;26;20293;-80
2024/04/25 02:14:00;;;;;;;3.60;3.20;;;;;;;3.77;100.00;97316.47;5415714;26;20276;-80
2024/04/25 02:16:28;;;;;;;5.53;3.27;;;;;;;3.74;100.00;97304.41;5414843;26;20697;-81
2024/04/25 02:19:00;;;;;;;5.00;3.20;;;;;;;3.79;100.00;97322.47;5415145;26;20233;-81
2024/04/25 02:26:56;;;;;;;3.73;3.00;;;;;;;3.83;100.00;97319.59;5419865;26;20297;-79
2024/04/25 02:29:24;;;;;;;4.10;3.20;;;;;;;3.83;100.00;97309.16;5418791;26;20303;-80
2024/04/25 02:31:52;;;;;;;4.73;3.20;;;;;;;3.89;100.00;97314.03;5417908;26;20338;-81
2024/04/25 02:34:23;;;;;;;3.47;3.17;;;;;;;3.88;100.00;97311.50;5418242;26;20229;-81
2024/04/25 02:36:51;;;;;;;4.13;3.53;;;;;;;3.89;100.00;97310.56;5418967;26;20281;-79
2024/04/25 02:39:19;;;;;;;4.20;3.23;;;;;;;3.87;100.00;97310.66;5419044;26;20349;-79
2024/04/25 02:41:47;;;;;;;4.40;4.00;;;;;;;3.92;100.00;97307.78;5417298;26;20325;-79
2024/04/25 02:44:16;;;;;;;6.30;3.37;;;;;;;3.98;100.00;97302.22;5418266;26;20272;-80
2024/04/25 02:46:41;;;;;;;5.43;3.20;;;;;;;3.94;100.00;97301.56;5417456;26;20764;-79
2024/04/25 02:49:10;;;;;;;3.37;3.07;;;;;;;4.00;100.00;97305.56;5418399;26;20232;-79
2024/04/25 02:51:40;;;;;;;4.27;3.13;;;;;;;3.99;100.00;97298.66;5416962;26;20223;-79
2024/04/25 02:54:08;;;;;;;6.57;2.97;;;;;;;4.03;100.00;97311.47;5417772;26;20240;-79
2024/04/25 02:56:34;;;;;;;5.10;3.63;;;;;;;4.05;100.00;97300.94;5417159;26;20346;-79
2024/04/25 02:59:02;;;;;;;3.27;2.57;;;;;;;4.08;100.00;97304.22;5417396;26;20274;-79
2024/04/25 03:01:28;;;;;;;3.50;2.83;;;;;;;4.10;100.00;97306.75;5415973;26;20296;-78
2024/04/25 03:03:56;;;;;;;4.30;2.90;;;;;;;4.13;100.00;97310.03;5416647;26;20322;-78
2024/04/25 03:06:25;;;;;;;3.17;2.80;;;;;;;4.17;100.00;97314.13;5417095;26;20327;-81
2024/04/25 03:08:55;;;;;;;3.37;2.77;;;;;;;4.14;100.00;97303.88;5417042;26;20298;-78
2024/04/25 03:11:21;;;;;;;3.20;2.57;;;;;;;4.11;100.00;97298.84;5416028;26;20234;-79
2024/04/25 03:13:49;;;;;;;5.50;2.90;;;;;;;4.10;100.00;97306.75;5416277;26;20257;-80
2024/04/25 03:16:15;;;;;;;3.13;2.53;;;;;;;4.05;100.00;97309.63;5412463;26;20313;-78
2024/04/25 03:18:43;;;;;;;4.13;3.10;;;;;;;4.03;100.00;97298.41;5417071;26;20225;-81
2024/04/25 03:21:09;;;;;;;3.17;2.20;;;;;;;4.15;100.00;97308.16;5416022;26;20366;-79
2024/04/25 03:23:40;;;;;;;2.87;2.17;;;;;;;4.09;100.00;97299.84;5416769;26;20237;-79
2024/04/25 03:26:08;;;;;;;3.17;2.43;;;;;;;4.13;100.00;97299.59;5416732;26;20313;-79
2024/04/25 03:28:37;;;;;;;3.50;2.17;;;;;;;4.14;100.00;97303.88;5417466;26;20237;-79
2024/04/25 03:31:03;;;;;;;2.80;2.43;;;;;;;4.13;100.00;97302.19;5416547;26;20857;-79
2024/04/25 03:33:31;;;;;;;2.60;2.27;;;;;;;4.10;100.00;97302.34;5417025;26;20217;-79
2024/04/25 03:35:56;;;;;;;3.23;2.23;;;;;;;4.16;100.00;97302.00;5416354;26;20298;-79
2024/04/25 03:38:25;;;;;;;3.07;2.43;;;;;;;4.16;100.00;97302.00;5416544;26;20282;-79
2024/04/25 03:40:53;;;;;;;4.23;2.40;;;;;;;4.14;100.00;97309.09;5414665;26;20293;-79
2024/04/25 03:43:24;;;;;;;4.30;2.60;;;;;;;4.11;100.00;97306.69;5416871;26;20262;-78
2024/04/25 03:45:52;;;;;;;3.57;2.77;;;;;;;4.08;100.00;97304.22;5416507;26;20308;-78
2024/04/25 03:48:20;;;;;;;3.43;2.60;;;;;;;4.10;100.00;97307.56;5415878;26;20277;-79
2024/04/25 03:50:48;;;;;;;3.80;2.93;;;;;;;4.12;100.00;97305.75;5415062;26;20337;-79
2024/04/25 03:53:16;;;;;;;2.97;2.60;;;;;;;4.06;100.00;97300.88;5415884;26;20283;-79
2024/04/25 03:55:44;;;;;;;4.37;3.00;;;;;;;4.11;100.00;97304.06;5416376;26;20281;-79
2024/04/25 03:58:12;;;;;;;4.00;2.80;;;;;;;4.14;100.00;97309.09;5416939;26;20285;-79
2024/04/25 04:00:43;;;;;;;3.90;2.63;;;;;;;4.11;100.00;97311.91;5416920;26;20351;-79
2024/04/25 04:03:11;;;;;;;2.90;2.60;;;;;;;4.16;100.00;97315.06;5421854;26;20261;-79
2024/04/25 04:05:39;;;;;;;2.50;2.17;;;;;;;4.19;100.00;97312.31;5422342;26;20282;-80
2024/04/25 04:08:08;;;;;;;4.40;2.90;;;;;;;4.17;100.00;97319.38;5422028;26;20273;-79
2024/04/25 04:10:36;;;;;;;3.17;2.60;;;;;;;4.19;100.00;97311.44;5420956;26;20664;-80
2024/04/25 04:13:04;;;;;;;3.30;2.53;;;;;;;4.23;100.00;97313.78;5420294;26;20242;-79
2024/04/25 04:15:32;;;;;;;4.53;3.13;;;;;;;4.24;100.00;97319.88;5419773;26;20240;-80
2024/04/25 04:18:03;;;;;;;3.83;2.80;;;;;;;4.22;100.00;97317.34;5420618;26;20262;-80
2024/04/25 04:20:33;;;;;;;3.83;2.77;;;;;;;4.23;100.00;97323.44;5427149;26;20225;-79
2024/04/25 04:23:01;;;;;;;4.90;3.20;;;;;;;4.20;100.00;97319.22;5427792;26;20225;-80
2024/04/25 04:25:29;;;;;;;4.73;3.10;;;;;;;4.20;100.00;97324.44;5427857;26;20219;-79
2024/04/25 04:27:58;;;;;;;4.10;3.17;;;;;;;4.16;100.00;97317.69;5425852;26;20315;-80
2024/04/25 04:30:26;;;;;;;3.30;2.50;;;;;;;4.18;100.00;97326.31;5422684;26;20277;-80
2024/04/25 04:32:54;;;;;;;3.93;3.17;;;;;;;4.18;100.00;97331.53;5452691;26;20252;-80
2024/04/25 04:35:25;;;;;;;3.90;3.40;;;;;;;4.18;100.00;97334.16;5458487;26;20257;-80
2024/04/25 04:37:53;;;;;;;4.37;3.07;;;;;;;4.18;100.00;97328.94;5458316;26;20267;-80
2024/04/25 04:40:21;;;;;;;5.90;3.00;;;;;;;4.21;100.00;97328.75;5457317;26;20620;-80
2024/04/25 04:42:49;;;;;;;4.80;3.50;;;;;;;4.23;100.00;97329.50;5458936;26;20234;-80
2024/04/25 04:45:17;;;;;;;3.90;3.10;;;;;;;4.21;100.00;97328.75;5456937;26;20321;-80
2024/04/25 04:47:46;;;;;;;4.70;3.47;;;;;;;4.27;100.00;97335.41;5456081;26;20343;-79
2024/04/25 04:50:17;;;;;;;3.83;3.10;;;;;;;4.29;100.00;97342.22;5453795;26;20384;-80
2024/04/25 04:52:48;;;;;;;5.03;3.00;;;;;;;4.32;100.00;97342.06;5455701;26;20224;-80
2024/04/25 04:55:16;;;;;;;3.60;2.77;;;;;;;4.33;100.00;97338.50;5455907;26;20320;-80
2024/04/25 04:57:45;;;;;;;3.93;3.00;;;;;;;4.39;100.00;97329.47;5455403;26;20267;-80
2024/04/25 05:00:14;;;;;;;3.10;2.80;;;;;;;4.41;100.00;97344.13;5453606;26;20289;-80
2024/04/25 05:02:42;;;;;;;4.70;2.93;;;;;;;4.42;100.00;97335.38;5455407;26;20252;-80
2024/04/25 05:05:10;;;;;;;4.30;3.50;;;;;;;4.43;100.00;97329.22;5455947;26;20752;-80
2024/04/25 05:07:38;;;;;;;3.07;2.70;;;;;;;4.46;100.00;97334.25;5455766;26;20274;-80
2024/04/25 05:10:09;;;;;;;5.63;3.03;;;;;;;4.51;100.00;97344.44;5454711;26;20622;-80
2024/04/25 05:12:37;;;;;;;3.63;3.20;;;;;;;4.53;100.00;97343.44;5456288;26;20653;-79
2024/04/25 05:15:06;;;;;;;4.10;3.60;;;;;;;4.56;100.00;97343.25;5456329;26;20340;-80
2024/04/25 05:17:34;;;;;;;5.77;3.60;;;;;;;4.57;100.00;97344.94;5457286;26;20659;-80
2024/04/25 05:20:02;;;;;;;4.83;4.10;;;;;;;4.54;100.00;97350.38;5456029;26;20261;-79
2024/04/25 05:22:30;;;;;;;5.00;3.80;;;;;;;4.58;100.00;97357.09;5454179;26;20269;-80
2024/04/25 05:24:58;;;;;;;5.27;3.40;;;;;;;4.60;100.00;97350.03;5453238;26;20224;-80
2024/04/25 05:27:32;;;;;;;5.07;3.87;;;;;;;4.65;100.00;97353.19;5453556;26;20274;-80
2024/04/25 05:30:00;;;;;;;4.90;3.43;;;;;;;4.62;100.00;97358.63;5453627;25;20257;-80
2024/04/25 05:32:28;;;;;;;3.70;3.10;;;;;;;4.65;100.00;97353.19;5452471;26;20309;-80
2024/04/25 05:34:57;;;;;;;7.00;3.77;;;;;;;4.73;100.00;97357.97;5453390;26;20323;-79
2024/04/25 05:37:26;;;;;;;4.77;3.40;;;;;;;4.77;100.00;97352.47;5453575;26;20222;-80
2024/04/25 05:39:56;;;;;;;6.57;3.50;;;;;;;4.75;100.00;97354.34;5453443;26;20565;-80
2024/04/25 05:42:24;;;;;;;4.30;3.53;;;;;;;4.81;100.00;97348.75;5453019;26;20284;-80
2024/04/25 05:44:54;;;;;;;6.37;4.23;;;;;;;4.84;100.00;97353.78;5452606;26;20412;-80
2024/04/25 05:47:23;;;;;;;3.87;3.37;;;;;;;4.89;100.00;97357.00;5453066;26;20281;-80
2024/04/25 05:49:51;;;;;;;5.27;3.30;;;;;;;4.87;100.00;97358.00;5452171;26;20237;-80
2024/04/25 05:52:20;;;;;;;4.63;3.50;;;;;;;4.86;100.00;97351.94;5451706;26;20224;-80
2024/04/25 05:54:49;;;;;;;4.37;3.27;;;;;;;4.88;100.00;97352.69;5452557;26;20228;-80
2024/04/25 05:57:17;;;;;;;4.40;3.37;;;;;;;4.89;100.00;97357.00;5451777;26;20251;-79
2024/04/25 05:59:45;;;;;;;4.93;3.77;;;;;;;4.88;100.00;97355.31;5451411;26;20814;-80
2024/04/25 06:02:16;;;;;;;6.73;3.27;;;;;;;4.92;100.00;97361.19;5448895;26;20312;-79
2024/04/25 06:04:42;;;;;;;5.17;3.60;;;;;;;4.92;100.00;97356.81;5451178;26;20236;-79
2024/04/25 06:07:11;;;;;;;4.77;3.50;;;;;;;4.97;100.00;97354.78;5451135;26;20263;-80
2024/04/25 06:09:39;;;;;;;5.97;3.80;;;;;;;5.03;100.00;97359.66;5450945;26;20232;-80
2024/04/25 06:12:07;;;;;;;5.67;4.10;;;;;;;5.14;100.00;97362.44;5449904;26;20338;-79
2024/04/25 06:14:35;;;;;;;6.00;3.97;;;;;;;5.20;100.00;97364.69;5450766;26;20225;-80
2024/04/25 06:17:05;;;;;;;6.97;3.40;;;;;;;5.21;100.00;97361.19;5448273;26;20791;-81
2024/04/25 06:19:36;;;;;;;5.20;3.37;;;;;;;5.24;100.00;97363.59;5447890;26;20618;-80
2024/04/25 06:22:04;;;;;;;4.63;3.20;;;;;;;5.24;100.00;97362.75;5450185;26;20232;-80
2024/04/25 06:24:33;;;;;;;5.00;3.47;;;;;;;5.31;100.00;97353.59;5449755;26;20217;-81
2024/04/25 06:27:01;;;;;;;6.13;3.30;;;;;;;5.34;100.00;97354.25;5449911;26;20236;-80
2024/04/25 06:29:29;;;;;;;5.60;3.13;;;;;;;5.39;100.00;97357.44;5451877;26;20232;-80
2024/04/25 06:31:58;;;;;;;4.93;3.47;;;;;;;5.46;100.00;97358.75;5449001;26;20305;-80
2024/04/25 06:34:30;;;;;;;5.63;3.57;;;;;;;5.52;100.00;97361.00;5452998;25;20298;-80
2024/04/25 06:37:04;;;;;;;4.83;3.67;;;;;;;5.58;100.00;97357.16;5454466;26;20302;-80
2024/04/25 06:39:33;;;;;;;6.50;4.00;;;;;;;5.55;100.00;97358.16;5454732;26;20272;-81
2024/04/25 06:42:01;;;;;;;5.37;3.90;;;;;;;5.60;100.00;97360.50;5453261;26;20281;-81
2024/04/25 06:44:30;;;;;;;6.47;3.80;;;;;;;5.59;100.00;97351.81;5452258;26;20297;-80
2024/04/25 06:46:58;;;;;;;5.67;3.70;;;;;;;5.63;100.00;97355.91;5451960;26;20276;-80
2024/04/25 06:49:27;;;;;;;5.53;3.53;;;;;;;5.62;100.00;97349.00;5450703;26;20217;-81
2024/04/25 06:51:55;;;;;;;5.17;3.60;;;;;;;5.69;100.00;97352.91;5449409;26;20263;-79
2024/04/25 06:54:26;;;;;;;6.30;3.50;;;;;;;5.64;100.00;97356.78;5448622;26;20282;-80
2024/04/25 06:56:54;;;;;;;4.73;3.27;;;;;;;5.64;100.00;97357.63;5451705;26;20210;-81
2024/04/25 06:59:22;;;;;;;5.07;3.90;;;;;;;5.65;100.00;97354.06;5459005;26;20292;-79
2024/04/25 07:01:51;;;;;;;7.23;4.50;;;;;;;5.71;100.00;97353.69;5432256;26;20319;-79
2024/04/25 07:04:20;;;;;;;7.90;4.40;;;;;;;5.69;100.00;97358.16;5426587;26;20304;-80
2024/04/25 07:06:48;;;;;;;7.17;4.50;;;;;;;5.78;100.00;97360.22;5425989;26;20222;-80
2024/04/25 07:09:16;;;;;;;7.10;4.43;;;;;;;5.87;100.00;97358.84;5425147;26;20321;-80
2024/04/25 07:11:47;;;;;;;7.73;5.20;;;;;;;5.90;100.00;97356.88;5425740;26;20309;-80
2024/04/25 07:14:15;;;;;;;7.17;4.53;;;;;;;5.93;100.00;97340.91;5429350;26;20229;-80
2024/04/25 07:16:43;;;;;;;10.27;5.30;;;;;;;5.94;100.00;97358.38;5429550;26;20294;-80
2024/04/25 07:19:13;;;;;;;7.40;5.00;;;;;;;5.99;100.00;97356.28;5429573;26;20566;-80
2024/04/25 07:21:41;;;;;;;9.20;5.37;;;;;;;6.07;100.00;97351.41;5427289;26;20233;-80
2024/04/25 07:24:09;;;;;;;8.90;5.03;;;;;;;6.11;100.00;97350.25;5426250;26;20227;-80
2024/04/25 07:26:37;;;;;;;10.03;5.43;;;;;;;6.14;100.00;97357.94;5428260;26;20230;-80
2024/04/25 07:29:08;;;;;;;7.20;4.50;;;;;;;6.00;100.00;97350.13;5428831;26;20295;-81
2024/04/25 07:31:36;;;;;;;5.00;4.10;;;;;;;5.60;100.00;97348.25;5430828;26;20319;-81
2024/04/25 07:34:04;;;;;;;7.23;4.80;;;;;;;5.46;100.00;97360.50;5430495;26;20228;-80
2024/04/25 07:36:35;;;;;;;6.87;4.20;;;;;;;5.40;100.00;97364.38;5430577;26;20287;-83
2024/04/25 07:39:04;;;;;;;6.60;4.10;;;;;;;5.24;100.00;97368.84;5426004;26;20302;-80
2024/04/25 07:41:32;;;;;;;7.07;4.70;;;;;;;5.13;100.00;97366.00;5426812;26;20306;-81
2024/04/25 07:44:00;;;;;;;6.07;4.23;;;;;;;5.13;100.00;97376.47;5427423;26;20229;-80
2024/04/25 07:46:31;;;;;;;6.63;4.33;;;;;;;5.09;100.00;97379.38;5431158;26;20214;-81
2024/04/25 07:49:01;;;;;;;5.17;3.97;;;;;;;5.09;100.00;97374.16;5430402;26;20250;-80
2024/04/25 07:51:30;;;;;;;4.70;3.60;;;;;;;5.17;100.00;97374.53;5429521;26;20319;-80
2024/04/25 07:53:58;;;;;;;4.90;4.10;;;;;;;5.25;100.00;97370.50;5429462;26;20220;-80
2024/04/25 07:56:27;;;;;;;7.20;5.13;;;;;;;5.33;100.00;97380.53;5429902;26;20277;-80
2024/04/25 07:58:56;;;;;;;5.13;3.90;;;;;;;5.49;100.00;97379.50;5429889;26;20226;-80
2024/04/25 08:01:24;;;;;;;5.77;4.27;;;;;;;5.67;100.00;97381.00;5427872;26;20285;-80
2024/04/25 08:03:54;;;;;;;7.70;4.70;;;;;;;5.84;100.00;97380.84;5423523;26;20313;-81
2024/04/25 08:06:23;;;;;;;7.37;4.87;;;;;;;5.91;100.00;97371.66;5417897;26;20324;-80
2024/04/25 08:08:51;;;;;;;5.53;4.50;;;;;;;5.97;100.00;97373.88;5417053;26;20224;-81
2024/04/25 08:11:20;;;;;;;6.90;4.77;;;;;;;6.04;100.00;97372.56;5416579;26;20766;-80
2024/04/25 08:13:48;;;;;;;6.87;4.90;;;;;;;6.02;100.00;97374.44;5417348;26;20280;-80
2024/04/25 08:16:16;;;;;;;5.83;4.63;;;;;;;6.07;100.00;97361.88;5415355;26;20225;-80
2024/04/25 08:18:44;;;;;;;7.03;4.80;;;;;;;6.13;100.00;97365.91;5414359;26;20280;-80
2024/04/25 08:21:15;;;;;;;7.47;4.83;;;;;;;6.19;100.00;97368.97;5413735;26;20280;-80
2024/04/25 08:23:43;;;;;;;8.43;4.47;;;;;;;6.30;100.00;97358.63;5413604;26;20274;-79
2024/04/25 08:26:11;;;;;;;7.07;4.33;;;;;;;6.43;100.00;97361.31;5413430;26;20342;-80
2024/04/25 08:28:39;;;;;;;4.97;4.07;;;;;;;6.58;100.00;97358.53;5415192;26;20283;-80
2024/04/25 08:31:08;;;;;;;4.10;3.50;;;;;;;6.76;100.00;97352.06;5412835;26;20409;-80
2024/04/25 08:33:37;;;;;;;5.60;3.33;;;;;;;6.86;100.00;97341.78;5414033;26;20229;-80
2024/04/25 08:36:05;;;;;;;6.07;2.90;;;;;;;6.85;100.00;97329.59;5413969;26;20327;-80
2024/04/25 08:38:37;;;;;;;5.57;3.90;;;;;;;6.89;100.00;97326.66;5413070;26;20231;-80
2024/04/25 08:41:05;;;;;;;9.67;4.60;;;;;;;6.96;100.00;97325.28;5412751;26;20243;-80
2024/04/25 08:43:36;;;;;;;7.57;3.80;;;;;;;6.96;100.00;97322.66;5412064;26;20233;-80
2024/04/25 08:46:05;;;;;;;6.90;3.80;;;;;;;7.01;100.00;97325.81;5412216;26;20716;-80
2024/04/25 08:48:35;;;;;;;7.13;3.23;;;;;;;7.13;100.00;97317.13;5412574;26;21151;-78
2024/04/25 08:51:04;;;;;;;4.77;3.23;;;;;;;7.28;100.00;97313.44;5410751;26;20243;-80
2024/04/25 08:53:37;;;;;;;5.33;3.50;;;;;;;7.52;99.27;97314.34;5415266;26;20287;-81
2024/04/25 08:56:07;;;;;;;5.20;3.30;;;;;;;7.70;97.69;97310.44;5417579;26;21081;-81
2024/04/25 08:58:36;;;;;;;4.73;3.10;;;;;;;7.90;95.30;97297.53;5418091;26;20266;-81
2024/04/25 09:01:05;;;;;;;4.80;3.43;;;;;;;8.10;91.23;97282.97;5416228;26;20376;-81
2024/04/25 09:03:33;;;;;;;4.67;3.40;;;;;;;8.30;91.39;97287.63;5417689;26;20773;-81
2024/04/25 09:06:01;;;;;;;6.07;2.87;;;;;;;8.60;86.44;97253.75;5418835;26;20301;-81
2024/04/25 09:08:31;;;;;;;4.93;3.10;;;;;;;8.68;83.39;97239.06;5422326;26;20226;-81
2024/04/25 09:11:00;;;;;;;5.67;3.30;;;;;;;8.80;82.59;97269.75;5422143;26;20232;-81
2024/04/25 09:13:28;;;;;;;3.93;3.10;;;;;;;8.95;80.93;97254.56;5422492;26;20228;-81
2024/04/25 09:16:02;;;;;;;4.20;3.07;;;;;;;9.01;82.08;97267.28;5420497;26;20705;-81
2024/04/25 09:18:30;;;;;;;4.17;3.20;;;;;;;9.29;80.07;97251.00;5420134;26;20272;-81
2024/04/25 09:20:58;;;;;;;4.87;3.17;;;;;;;9.37;78.41;97243.34;5419934;26;20276;-81
2024/04/25 09:23:27;;;;;;;2.70;2.27;;;;;;;9.47;75.38;97213.47;5421231;26;20261;-81
2024/04/25 09:25:55;;;;;;;6.90;2.57;;;;;;;9.54;72.63;97208.56;5420001;26;20225;-81
2024/04/25 09:28:23;;;;;;;5.00;2.60;;;;;;;9.21;70.38;97190.13;5420244;26;20343;-81
2024/04/25 09:30:52;;;;;;;3.30;2.20;;;;;;;9.17;73.46;97220.34;5417354;26;20240;-81
2024/04/25 09:33:20;;;;;;;4.57;2.53;;;;;;;9.18;74.11;97222.84;5418237;26;20224;-81
2024/04/25 09:35:51;;;;;;;5.40;2.30;;;;;;;9.20;73.72;97214.81;5416242;26;20265;-81
2024/04/25 09:38:20;;;;;;;2.87;1.90;;;;;;;9.26;72.19;97206.44;5416818;26;20231;-81
2024/04/25 09:40:49;;;;;;;2.70;2.00;;;;;;;9.19;67.34;97155.16;5415395;26;20282;-81
2024/04/25 09:43:19;;;;;;;2.80;1.90;;;;;;;9.31;69.63;97191.09;5415416;26;20232;-80
2024/04/25 09:45:51;;;;;;;3.40;1.80;;;;;;;9.22;68.43;97175.97;5411456;26;20233;-81
2024/04/25 09:48:21;;;;;;;6.17;1.90;;;;;;;9.08;69.73;97197.31;5413609;26;20320;-77
2024/04/25 09:50:51;;;;;;;3.50;1.50;;;;;;;9.08;69.43;97194.69;5411347;26;20233;-81
2024/04/25 09:53:25;;;;;;;2.40;1.60;;;;;;;8.99;69.09;97180.41;5412361;26;20325;-83
2024/04/25 09:55:54;;;;;;;2.10;1.50;;;;;;;8.91;67.25;97161.75;5410596;26;20316;-81
2024/04/25 09:58:32;;;;;;;2.13;1.50;;;;;;;8.76;68.77;97188.44;5407599;26;20231;-81
2024/04/25 10:01:05;;;;;;;2.53;1.50;;;;;;;8.72;72.28;97210.69;5406634;26;20393;-81
2024/04/25 10:03:34;;;;;;;2.87;1.67;;;;;;;8.79;72.52;97214.53;5407665;26;20875;-81
2024/04/25 10:06:02;;;;;;;4.73;2.00;;;;;;;8.84;73.09;97218.50;5410612;26;20276;-79
2024/04/25 10:08:31;;;;;;;3.33;1.60;;;;;;;8.83;70.07;97200.19;5405190;26;20261;-80
2024/04/25 10:11:00;;;;;;;4.57;1.90;;;;;;;9.00;67.04;97160.19;5408735;26;20266;-81
2024/04/25 10:13:28;;;;;;;2.73;1.70;;;;;;;9.20;65.21;97135.72;5409584;26;20343;-80
2024/04/25 10:15:58;;;;;;;3.57;1.40;;;;;;;9.48;63.18;97119.38;5409795;26;20288;-81
2024/04/25 10:18:30;;;;;;;2.60;1.50;;;;;;;9.73;64.26;97140.19;5411574;26;20222;-83
2024/04/25 10:21:02;;;;;;;2.43;1.30;;;;;;;9.87;61.86;97121.41;5412161;26;20238;-84
2024/04/25 10:23:33;;;;;;;2.57;1.20;;;;;;;10.18;63.65;97145.19;5423462;26;20233;-81
2024/04/25 10:26:01;;;;;;;2.93;1.10;;;;;;;10.48;62.99;97139.13;5425377;26;20217;-81
2024/04/25 10:28:31;;;;;;;4.53;1.53;;;;;;;10.61;61.06;97123.91;5423908;26;20233;-81
2024/04/25 10:30:59;;;;;;;1.93;1.20;;;;;;;10.50;58.39;97132.75;5421485;26;20231;-81
2024/04/25 10:33:31;;;;;;;4.37;1.53;;;;;;;10.14;58.05;97130.56;5417005;26;20227;-81
2024/04/25 10:36:05;;;;;;;2.87;1.50;;;;;;;9.46;58.79;97137.97;5417717;26;20296;-81
2024/04/25 10:38:33;;;;;;;2.30;1.30;;;;;;;9.23;59.19;97140.78;5418083;26;20256;-82
2024/04/25 10:41:01;;;;;;;1.60;1.20;;;;;;;9.13;61.39;97176.72;5416851;26;20331;-82
2024/04/25 10:43:29;;;;;;;2.57;1.17;;;;;;;9.06;64.16;97199.25;5417507;26;20721;-80
2024/04/25 10:45:58;;;;;;;4.43;1.90;;;;;;;8.66;69.69;97224.31;5416927;26;20240;-81
2024/04/25 10:48:26;;;;;;;1.97;1.50;;;;;;;8.38;76.68;97251.06;5418109;26;20267;-81
2024/04/25 10:50:57;;;;;;;2.60;1.40;;;;;;;8.22;80.47;97242.63;5417717;26;20647;-81
2024/04/25 10:53:25;;;;;;;4.17;1.60;;;;;;;8.22;82.53;97250.50;5419083;26;20916;-80
2024/04/25 10:55:54;;;;;;;2.33;1.50;;;;;;;8.33;84.43;97261.91;5420783;26;20304;-80
2024/04/25 10:58:22;;;;;;;3.87;1.60;;;;;;;8.43;80.74;97233.09;5419475;26;20354;-81
2024/04/25 11:00:50;;;;;;;3.17;1.20;;;;;;;8.66;79.77;97219.06;5416700;26;20241;-82
2024/04/25 11:03:19;;;;;;;4.23;1.37;;;;;;;8.85;83.71;97241.25;5422023;26;20288;-82
2024/04/25 11:05:47;;;;;;;2.90;1.40;;;;;;;9.03;80.75;97228.47;5421774;26;20265;-82
2024/04/25 11:08:18;;;;;;;2.43;1.20;;;;;;;9.17;77.43;97191.34;5421467;26;20285;-82
2024/04/25 11:10:47;;;;;;;2.23;1.40;;;;;;;9.22;69.18;97117.97;5421719;26;20584;-82
2024/04/25 11:13:15;;;;;;;2.27;1.37;;;;;;;9.28;68.51;97123.63;5421796;26;20310;-82
2024/04/25 11:15:44;;;;;;;1.50;1.40;;;;;;;9.30;68.84;97131.41;5421211;26;20268;-82
2024/04/25 11:18:14;;;;;;;3.43;1.50;;;;;;;9.41;67.49;97113.75;5421425;26;20221;-82
2024/04/25 11:20:43;;;;;;;2.90;1.40;;;;;;;9.52;66.97;97126.06;5420648;26;20272;-82
2024/04/25 11:23:15;;;;;;;2.50;1.40;;;;;;;9.66;66.40;97118.72;5421561;26;20231;-82
2024/04/25 11:25:46;;;;;;;2.10;1.40;;;;;;;9.68;63.77;97094.84;5421216;26;20256;-82
2024/04/25 11:28:14;;;;;;;3.00;1.23;;;;;;;9.68;61.73;97079.03;5415806;26;20657;-81
2024/04/25 11:30:42;;;;;;;2.13;1.33;;;;;;;9.59;60.80;97117.53;5407856;26;20344;-81
2024/04/25 11:33:10;;;;;;;1.70;1.30;;;;;;;9.63;61.76;97131.31;5408629;26;20223;-81
2024/04/25 11:35:39;;;;;;;2.10;1.10;;;;;;;9.80;64.25;97151.91;5409259;26;20686;-81
2024/04/25 11:38:07;;;;;;;1.73;1.13;;;;;;;10.05;63.00;97143.69;5409150;26;20228;-81
2024/04/25 11:40:39;;;;;;;2.10;1.30;;;;;;;10.39;65.63;97161.03;5416705;26;20259;-82
2024/04/25 11:43:10;;;;;;;2.47;1.27;;;;;;;10.48;62.05;97133.84;5419747;26;20233;-82
2024/04/25 11:45:41;;;;;;;1.63;1.10;;;;;;;10.53;64.16;97147.50;5420200;26;20302;-82
2024/04/25 11:48:10;;;;;;;2.73;1.33;;;;;;;10.41;60.76;97115.03;5417696;26;20973;-81